sensor_id;sensor_type;location;lat;lon;timestamp;pressure;altitude;pressure_sealevel;temperature;humidity
16613;BME280;8419;52.358;9.752;2023-07-22T00:00:15;100601.00;;;23.20;41.55
16613;BME280;8419;52.358;9.752;2023-07-22T00:03:00;100590.00;;;23.15;41.70
16613;BME280;8419;52.358;9.752;2023-07-22T00:05:46;100594.00;;;23.12;41.65
16613;BME280;8419;52.358;9.752;2023-07-22T00:08:31;100594.00;;;23.22;41.46
16613;BME280;8419;52.358;9.752;2023-07-22T00:11:17;100596.00;;;23.15;41.67
16613;BME280;8419;52.358;9.752;2023-07-22T00:14:03;100588.00;;;23.10;41.70
16613;BME280;8419;52.358;9.752;2023-07-22T00:16:51;100594.00;;;23.09;41.67
16613;BME280;8419;52.358;9.752;2023-07-22T00:19:37;100594.00;;;22.98;41.85
16613;BME280;8419;52.358;9.752;2023-07-22T00:22:22;100597.00;;;23.08;41.74
16613;BME280;8419;52.358;9.752;2023-07-22T00:25:10;100596.00;;;23.09;41.61
16613;BME280;8419;52.358;9.752;2023-07-22T00:27:58;100602.00;;;23.09;41.61
16613;BME280;8419;52.358;9.752;2023-07-22T00:30:44;100607.00;;;23.09;41.53
16613;BME280;8419;52.358;9.752;2023-07-22T00:33:30;100609.00;;;23.08;41.56
16613;BME280;8419;52.358;9.752;2023-07-22T00:36:15;100609.00;;;22.95;41.89
16613;BME280;8419;52.358;9.752;2023-07-22T00:39:02;100615.00;;;22.97;41.86
16613;BME280;8419;52.358;9.752;2023-07-22T00:41:48;100610.00;;;22.94;41.87
16613;BME280;8419;52.358;9.752;2023-07-22T00:44:33;100606.00;;;22.92;41.87
16613;BME280;8419;52.358;9.752;2023-07-22T00:47:20;100605.00;;;22.87;41.96
16613;BME280;8419;52.358;9.752;2023-07-22T00:50:08;100611.00;;;22.82;42.07
16613;BME280;8419;52.358;9.752;2023-07-22T00:52:55;100609.00;;;22.80;42.04
16613;BME280;8419;52.358;9.752;2023-07-22T00:55:40;100604.00;;;22.75;42.13
16613;BME280;8419;52.358;9.752;2023-07-22T00:58:26;100605.00;;;22.74;42.14
16613;BME280;8419;52.358;9.752;2023-07-22T01:01:12;100605.00;;;22.67;42.27
16613;BME280;8419;52.358;9.752;2023-07-22T01:03:58;100602.00;;;22.66;42.33
16613;BME280;8419;52.358;9.752;2023-07-22T01:06:46;100596.00;;;22.76;42.02
16613;BME280;8419;52.358;9.752;2023-07-22T01:09:35;100599.00;;;22.80;42.00
16613;BME280;8419;52.358;9.752;2023-07-22T01:12:21;100597.00;;;22.82;42.01
16613;BME280;8419;52.358;9.752;2023-07-22T01:15:08;100597.00;;;22.80;41.96
16613;BME280;8419;52.358;9.752;2023-07-22T01:17:54;100595.00;;;22.92;41.75
16613;BME280;8419;52.358;9.752;2023-07-22T01:20:42;100589.00;;;22.72;42.13
16613;BME280;8419;52.358;9.752;2023-07-22T01:23:29;100607.00;;;22.68;42.17
16613;BME280;8419;52.358;9.752;2023-07-22T01:26:14;100596.00;;;22.73;42.03
16613;BME280;8419;52.358;9.752;2023-07-22T01:29:07;100600.00;;;22.64;42.24
16613;BME280;8419;52.358;9.752;2023-07-22T01:31:54;100601.00;;;22.57;42.42
16613;BME280;8419;52.358;9.752;2023-07-22T01:34:41;100595.00;;;22.56;42.34
16613;BME280;8419;52.358;9.752;2023-07-22T01:37:27;100600.00;;;22.57;42.33
16613;BME280;8419;52.358;9.752;2023-07-22T01:40:12;100594.00;;;22.56;42.37
16613;BME280;8419;52.358;9.752;2023-07-22T01:42:58;100589.00;;;22.53;42.37
16613;BME280;8419;52.358;9.752;2023-07-22T01:45:43;100587.00;;;22.55;42.38
16613;BME280;8419;52.358;9.752;2023-07-22T01:48:29;100590.00;;;22.50;42.38
16613;BME280;8419;52.358;9.752;2023-07-22T01:51:15;100594.00;;;22.48;42.45
16613;BME280;8419;52.358;9.752;2023-07-22T01:54:01;100588.00;;;22.46;42.43
16613;BME280;8419;52.358;9.752;2023-07-22T01:56:47;100592.00;;;22.48;42.31
16613;BME280;8419;52.358;9.752;2023-07-22T01:59:32;100592.00;;;22.45;42.41
16613;BME280;8419;52.358;9.752;2023-07-22T02:02:19;100587.00;;;22.42;42.42
16613;BME280;8419;52.358;9.752;2023-07-22T02:05:07;100593.00;;;22.42;42.45
16613;BME280;8419;52.358;9.752;2023-07-22T02:07:54;100580.00;;;22.37;42.52
16613;BME280;8419;52.358;9.752;2023-07-22T02:10:40;100589.00;;;22.39;42.49
16613;BME280;8419;52.358;9.752;2023-07-22T02:13:26;100591.00;;;22.35;42.51
16613;BME280;8419;52.358;9.752;2023-07-22T02:16:12;100595.00;;;22.34;42.51
16613;BME280;8419;52.358;9.752;2023-07-22T02:18:57;100593.00;;;22.29;42.52
16613;BME280;8419;52.358;9.752;2023-07-22T02:21:43;100597.00;;;22.27;42.54
16613;BME280;8419;52.358;9.752;2023-07-22T02:24:28;100598.00;;;22.23;42.59
16613;BME280;8419;52.358;9.752;2023-07-22T02:27:14;100601.00;;;22.22;42.64
16613;BME280;8419;52.358;9.752;2023-07-22T02:30:00;100607.00;;;22.18;42.66
16613;BME280;8419;52.358;9.752;2023-07-22T02:32:46;100605.00;;;22.21;42.62
16613;BME280;8419;52.358;9.752;2023-07-22T02:35:32;100596.00;;;22.18;42.62
16613;BME280;8419;52.358;9.752;2023-07-22T02:38:18;100610.00;;;22.15;42.63
16613;BME280;8419;52.358;9.752;2023-07-22T02:41:04;100604.00;;;22.16;42.58
16613;BME280;8419;52.358;9.752;2023-07-22T02:43:52;100603.00;;;22.20;42.48
16613;BME280;8419;52.358;9.752;2023-07-22T02:46:38;100605.00;;;22.17;42.49
16613;BME280;8419;52.358;9.752;2023-07-22T02:49:24;100609.00;;;22.16;42.55
16613;BME280;8419;52.358;9.752;2023-07-22T02:52:09;100613.00;;;22.18;42.55
16613;BME280;8419;52.358;9.752;2023-07-22T02:55:07;100624.00;;;22.24;42.42
16613;BME280;8419;52.358;9.752;2023-07-22T02:57:53;100619.00;;;22.26;42.46
16613;BME280;8419;52.358;9.752;2023-07-22T03:00:39;100622.00;;;22.23;42.49
16613;BME280;8419;52.358;9.752;2023-07-22T03:03:25;100621.00;;;22.21;42.52
16613;BME280;8419;52.358;9.752;2023-07-22T03:06:10;100618.00;;;22.22;42.48
16613;BME280;8419;52.358;9.752;2023-07-22T03:08:56;100622.00;;;22.17;42.50
16613;BME280;8419;52.358;9.752;2023-07-22T03:11:43;100627.00;;;22.16;42.49
16613;BME280;8419;52.358;9.752;2023-07-22T03:14:28;100631.00;;;22.16;42.46
16613;BME280;8419;52.358;9.752;2023-07-22T03:17:15;100620.00;;;22.16;42.44
16613;BME280;8419;52.358;9.752;2023-07-22T03:20:04;100618.00;;;22.18;42.32
16613;BME280;8419;52.358;9.752;2023-07-22T03:22:54;100630.00;;;22.20;42.25
16613;BME280;8419;52.358;9.752;2023-07-22T03:25:39;100632.00;;;22.14;42.29
16613;BME280;8419;52.358;9.752;2023-07-22T03:28:26;100629.00;;;22.12;42.29
16613;BME280;8419;52.358;9.752;2023-07-22T03:31:12;100643.00;;;22.11;42.29
16613;BME280;8419;52.358;9.752;2023-07-22T03:33:57;100649.00;;;22.11;42.26
16613;BME280;8419;52.358;9.752;2023-07-22T03:36:43;100646.00;;;22.13;42.19
16613;BME280;8419;52.358;9.752;2023-07-22T03:39:29;100653.00;;;22.10;42.23
16613;BME280;8419;52.358;9.752;2023-07-22T03:42:14;100652.00;;;22.10;42.20
16613;BME280;8419;52.358;9.752;2023-07-22T03:45:00;100650.00;;;22.09;42.19
16613;BME280;8419;52.358;9.752;2023-07-22T03:47:50;100655.00;;;22.10;42.17
16613;BME280;8419;52.358;9.752;2023-07-22T03:50:36;100652.00;;;22.13;42.12
16613;BME280;8419;52.358;9.752;2023-07-22T03:53:21;100657.00;;;22.14;42.01
16613;BME280;8419;52.358;9.752;2023-07-22T03:56:07;100656.00;;;22.04;42.25
16613;BME280;8419;52.358;9.752;2023-07-22T03:58:53;100658.00;;;22.06;42.23
16613;BME280;8419;52.358;9.752;2023-07-22T04:01:38;100654.00;;;22.13;42.12
16613;BME280;8419;52.358;9.752;2023-07-22T04:04:24;100656.00;;;22.08;42.19
16613;BME280;8419;52.358;9.752;2023-07-22T04:07:09;100656.00;;;22.06;42.29
16613;BME280;8419;52.358;9.752;2023-07-22T04:09:55;100658.00;;;22.07;42.29
16613;BME280;8419;52.358;9.752;2023-07-22T04:12:40;100663.00;;;22.10;42.26
16613;BME280;8419;52.358;9.752;2023-07-22T04:15:26;100657.00;;;22.14;42.17
16613;BME280;8419;52.358;9.752;2023-07-22T04:18:11;100663.00;;;22.20;42.12
16613;BME280;8419;52.358;9.752;2023-07-22T04:20:57;100659.00;;;22.24;42.10
16613;BME280;8419;52.358;9.752;2023-07-22T04:23:43;100655.00;;;22.29;42.04
16613;BME280;8419;52.358;9.752;2023-07-22T04:26:30;100664.00;;;22.35;41.98
16613;BME280;8419;52.358;9.752;2023-07-22T04:29:15;100656.00;;;22.40;41.89
16613;BME280;8419;52.358;9.752;2023-07-22T04:32:02;100659.00;;;22.46;41.79
16613;BME280;8419;52.358;9.752;2023-07-22T04:34:48;100656.00;;;22.61;41.62
16613;BME280;8419;52.358;9.752;2023-07-22T04:37:33;100658.00;;;22.59;41.63
16613;BME280;8419;52.358;9.752;2023-07-22T04:40:19;100667.00;;;22.59;41.64
16613;BME280;8419;52.358;9.752;2023-07-22T04:43:05;100658.00;;;22.62;41.62
16613;BME280;8419;52.358;9.752;2023-07-22T04:45:50;100659.00;;;22.64;41.60
16613;BME280;8419;52.358;9.752;2023-07-22T04:48:36;100672.00;;;22.66;41.60
16613;BME280;8419;52.358;9.752;2023-07-22T04:51:22;100669.00;;;22.68;41.53
16613;BME280;8419;52.358;9.752;2023-07-22T04:54:08;100676.00;;;22.73;41.53
16613;BME280;8419;52.358;9.752;2023-07-22T04:56:53;100676.00;;;22.82;41.38
16613;BME280;8419;52.358;9.752;2023-07-22T04:59:39;100685.00;;;22.85;41.37
16613;BME280;8419;52.358;9.752;2023-07-22T05:02:24;100677.00;;;22.89;41.30
16613;BME280;8419;52.358;9.752;2023-07-22T05:05:10;100671.00;;;22.92;41.28
16613;BME280;8419;52.358;9.752;2023-07-22T05:07:56;100675.00;;;22.94;41.28
16613;BME280;8419;52.358;9.752;2023-07-22T05:10:42;100680.00;;;23.01;41.17
16613;BME280;8419;52.358;9.752;2023-07-22T05:13:27;100678.00;;;23.03;41.18
16613;BME280;8419;52.358;9.752;2023-07-22T05:16:13;100675.00;;;23.03;41.23
16613;BME280;8419;52.358;9.752;2023-07-22T05:18:58;100682.00;;;23.09;41.17
16613;BME280;8419;52.358;9.752;2023-07-22T05:21:44;100690.00;;;23.15;41.06
16613;BME280;8419;52.358;9.752;2023-07-22T05:24:32;100698.00;;;23.21;41.02
16613;BME280;8419;52.358;9.752;2023-07-22T05:27:19;100694.00;;;23.30;40.90
16613;BME280;8419;52.358;9.752;2023-07-22T05:30:15;100693.00;;;23.28;40.95
16613;BME280;8419;52.358;9.752;2023-07-22T05:33:00;100692.00;;;23.29;40.93
16613;BME280;8419;52.358;9.752;2023-07-22T05:35:46;100695.00;;;23.29;40.92
16613;BME280;8419;52.358;9.752;2023-07-22T05:38:32;100695.00;;;23.36;40.85
16613;BME280;8419;52.358;9.752;2023-07-22T05:41:17;100701.00;;;23.40;40.82
16613;BME280;8419;52.358;9.752;2023-07-22T05:44:06;100697.00;;;23.45;40.71
16613;BME280;8419;52.358;9.752;2023-07-22T05:46:51;100699.00;;;23.45;40.73
16613;BME280;8419;52.358;9.752;2023-07-22T05:49:37;100696.00;;;23.43;40.80
16613;BME280;8419;52.358;9.752;2023-07-22T05:52:26;100704.00;;;23.48;40.68
16613;BME280;8419;52.358;9.752;2023-07-22T05:55:12;100705.00;;;23.39;40.93
16613;BME280;8419;52.358;9.752;2023-07-22T05:57:58;100699.00;;;23.56;40.62
16613;BME280;8419;52.358;9.752;2023-07-22T06:00:45;100706.00;;;23.63;40.48
16613;BME280;8419;52.358;9.752;2023-07-22T06:03:31;100709.00;;;23.73;40.36
16613;BME280;8419;52.358;9.752;2023-07-22T06:06:17;100705.00;;;23.78;40.31
16613;BME280;8419;52.358;9.752;2023-07-22T06:09:02;100706.00;;;23.80;40.30
16613;BME280;8419;52.358;9.752;2023-07-22T06:11:48;100705.00;;;23.90;40.19
16613;BME280;8419;52.358;9.752;2023-07-22T06:14:33;100711.00;;;23.97;40.19
16613;BME280;8419;52.358;9.752;2023-07-22T06:17:20;100710.00;;;24.09;40.07
16613;BME280;8419;52.358;9.752;2023-07-22T06:20:11;100713.00;;;24.24;39.85
16613;BME280;8419;52.358;9.752;2023-07-22T06:22:57;100715.00;;;24.40;39.69
16613;BME280;8419;52.358;9.752;2023-07-22T06:25:43;100716.00;;;24.52;39.55
16613;BME280;8419;52.358;9.752;2023-07-22T06:28:29;100725.00;;;24.61;39.46
16613;BME280;8419;52.358;9.752;2023-07-22T06:31:14;100722.00;;;24.75;39.23
16613;BME280;8419;52.358;9.752;2023-07-22T06:34:01;100712.00;;;24.91;39.02
16613;BME280;8419;52.358;9.752;2023-07-22T06:36:48;100719.00;;;25.05;38.80
16613;BME280;8419;52.358;9.752;2023-07-22T06:39:33;100717.00;;;25.12;38.76
16613;BME280;8419;52.358;9.752;2023-07-22T06:42:19;100716.00;;;25.20;38.67
16613;BME280;8419;52.358;9.752;2023-07-22T06:45:06;100718.00;;;25.35;38.48
16613;BME280;8419;52.358;9.752;2023-07-22T06:47:52;100717.00;;;25.53;38.22
16613;BME280;8419;52.358;9.752;2023-07-22T06:50:37;100724.00;;;25.54;38.14
16613;BME280;8419;52.358;9.752;2023-07-22T06:53:23;100726.00;;;25.55;38.09
16613;BME280;8419;52.358;9.752;2023-07-22T06:56:09;100723.00;;;25.60;37.96
16613;BME280;8419;52.358;9.752;2023-07-22T06:58:54;100727.00;;;25.65;37.81
16613;BME280;8419;52.358;9.752;2023-07-22T07:01:40;100724.00;;;25.80;37.69
16613;BME280;8419;52.358;9.752;2023-07-22T07:04:26;100718.00;;;25.86;37.46
16613;BME280;8419;52.358;9.752;2023-07-22T07:07:12;100719.00;;;25.85;37.38
16613;BME280;8419;52.358;9.752;2023-07-22T07:09:57;100727.00;;;25.91;37.19
16613;BME280;8419;52.358;9.752;2023-07-22T07:12:43;100730.00;;;25.90;36.95
16613;BME280;8419;52.358;9.752;2023-07-22T07:15:29;100723.00;;;25.97;36.80
16613;BME280;8419;52.358;9.752;2023-07-22T07:18:14;100720.00;;;26.05;36.74
16613;BME280;8419;52.358;9.752;2023-07-22T07:21:00;100716.00;;;26.07;36.63
16613;BME280;8419;52.358;9.752;2023-07-22T07:23:46;100725.00;;;26.10;36.57
16613;BME280;8419;52.358;9.752;2023-07-22T07:26:32;100722.00;;;26.18;36.37
16613;BME280;8419;52.358;9.752;2023-07-22T07:29:17;100727.00;;;26.40;36.09
16613;BME280;8419;52.358;9.752;2023-07-22T07:32:04;100725.00;;;26.59;35.86
16613;BME280;8419;52.358;9.752;2023-07-22T07:34:50;100720.00;;;26.60;35.55
16613;BME280;8419;52.358;9.752;2023-07-22T07:37:36;100722.00;;;26.53;35.50
16613;BME280;8419;52.358;9.752;2023-07-22T07:40:22;100733.00;;;26.34;35.34
16613;BME280;8419;52.358;9.752;2023-07-22T07:43:08;100729.00;;;26.41;35.40
16613;BME280;8419;52.358;9.752;2023-07-22T07:46:13;100727.00;;;26.58;35.18
16613;BME280;8419;52.358;9.752;2023-07-22T07:49:01;100729.00;;;26.87;34.84
16613;BME280;8419;52.358;9.752;2023-07-22T07:51:46;100732.00;;;26.92;34.78
16613;BME280;8419;52.358;9.752;2023-07-22T07:54:32;100727.00;;;27.07;34.54
16613;BME280;8419;52.358;9.752;2023-07-22T07:57:18;100732.00;;;26.90;34.44
16613;BME280;8419;52.358;9.752;2023-07-22T08:00:05;100731.00;;;26.83;34.48
16613;BME280;8419;52.358;9.752;2023-07-22T08:02:54;100736.00;;;26.89;34.48
16613;BME280;8419;52.358;9.752;2023-07-22T08:05:40;100732.00;;;27.07;34.06
16613;BME280;8419;52.358;9.752;2023-07-22T08:08:26;100735.00;;;27.07;33.88
16613;BME280;8419;52.358;9.752;2023-07-22T08:11:14;100732.00;;;26.99;34.02
16613;BME280;8419;52.358;9.752;2023-07-22T08:14:00;100732.00;;;26.96;34.13
16613;BME280;8419;52.358;9.752;2023-07-22T08:16:47;100738.00;;;26.96;34.26
16613;BME280;8419;52.358;9.752;2023-07-22T08:19:34;100728.00;;;27.03;34.21
16613;BME280;8419;52.358;9.752;2023-07-22T08:22:20;100732.00;;;27.10;34.06
16613;BME280;8419;52.358;9.752;2023-07-22T08:25:06;100744.00;;;27.16;33.98
16613;BME280;8419;52.358;9.752;2023-07-22T08:27:52;100740.00;;;27.17;33.73
16613;BME280;8419;52.358;9.752;2023-07-22T08:30:38;100739.00;;;27.22;33.71
16613;BME280;8419;52.358;9.752;2023-07-22T08:33:25;100735.00;;;27.41;33.64
16613;BME280;8419;52.358;9.752;2023-07-22T08:36:11;100734.00;;;27.60;33.39
16613;BME280;8419;52.358;9.752;2023-07-22T08:38:57;100739.00;;;27.68;33.21
16613;BME280;8419;52.358;9.752;2023-07-22T08:41:48;100746.00;;;27.82;32.88
16613;BME280;8419;52.358;9.752;2023-07-22T08:44:38;100745.00;;;28.01;32.70
16613;BME280;8419;52.358;9.752;2023-07-22T08:47:29;100747.00;;;28.17;32.56
16613;BME280;8419;52.358;9.752;2023-07-22T08:50:21;100750.00;;;28.37;32.33
16613;BME280;8419;52.358;9.752;2023-07-22T08:53:07;100750.00;;;28.51;32.17
16613;BME280;8419;52.358;9.752;2023-07-22T08:55:54;100738.00;;;28.67;32.06
16613;BME280;8419;52.358;9.752;2023-07-22T08:58:42;100740.00;;;28.60;31.94
16613;BME280;8419;52.358;9.752;2023-07-22T09:01:29;100735.00;;;28.50;32.10
16613;BME280;8419;52.358;9.752;2023-07-22T09:04:15;100745.00;;;28.50;32.22
16613;BME280;8419;52.358;9.752;2023-07-22T09:07:01;100745.00;;;28.32;32.29
16613;BME280;8419;52.358;9.752;2023-07-22T09:09:49;100745.00;;;27.98;32.85
16613;BME280;8419;52.358;9.752;2023-07-22T09:12:35;100736.00;;;28.02;32.98
16613;BME280;8419;52.358;9.752;2023-07-22T09:15:26;100732.00;;;28.15;33.03
16613;BME280;8419;52.358;9.752;2023-07-22T09:18:11;100739.00;;;28.27;33.00
16613;BME280;8419;52.358;9.752;2023-07-22T09:21:00;100725.00;;;28.41;32.71
16613;BME280;8419;52.358;9.752;2023-07-22T09:23:47;100732.00;;;28.39;32.65
16613;BME280;8419;52.358;9.752;2023-07-22T09:26:33;100731.00;;;28.43;32.59
16613;BME280;8419;52.358;9.752;2023-07-22T09:29:19;100730.00;;;28.59;32.09
16613;BME280;8419;52.358;9.752;2023-07-22T09:32:17;100729.00;;;28.73;31.75
16613;BME280;8419;52.358;9.752;2023-07-22T09:35:20;100736.00;;;28.93;31.62
16613;BME280;8419;52.358;9.752;2023-07-22T09:38:07;100728.00;;;28.85;31.46
16613;BME280;8419;52.358;9.752;2023-07-22T09:40:53;100725.00;;;28.87;31.71
16613;BME280;8419;52.358;9.752;2023-07-22T09:43:39;100721.00;;;28.98;31.75
16613;BME280;8419;52.358;9.752;2023-07-22T09:46:32;100724.00;;;29.19;31.66
16613;BME280;8419;52.358;9.752;2023-07-22T09:49:18;100716.00;;;29.29;31.69
16613;BME280;8419;52.358;9.752;2023-07-22T09:52:09;100720.00;;;29.53;31.38
16613;BME280;8419;52.358;9.752;2023-07-22T09:54:59;100723.00;;;29.58;31.31
16613;BME280;8419;52.358;9.752;2023-07-22T09:57:46;100718.00;;;29.78;31.22
16613;BME280;8419;52.358;9.752;2023-07-22T10:00:33;100720.00;;;29.89;31.04
16613;BME280;8419;52.358;9.752;2023-07-22T10:03:20;100719.00;;;29.79;31.13
16613;BME280;8419;52.358;9.752;2023-07-22T10:06:07;100709.00;;;29.52;31.37
16613;BME280;8419;52.358;9.752;2023-07-22T10:08:56;100705.00;;;29.36;31.59
16613;BME280;8419;52.358;9.752;2023-07-22T10:11:42;100715.00;;;29.37;31.57
16613;BME280;8419;52.358;9.752;2023-07-22T10:14:28;100701.00;;;29.56;31.31
16613;BME280;8419;52.358;9.752;2023-07-22T10:17:15;100713.00;;;29.71;31.07
16613;BME280;8419;52.358;9.752;2023-07-22T10:20:02;100707.00;;;29.86;30.56
16613;BME280;8419;52.358;9.752;2023-07-22T10:22:51;100705.00;;;29.98;30.23
16613;BME280;8419;52.358;9.752;2023-07-22T10:25:38;100710.00;;;29.83;30.27
16613;BME280;8419;52.358;9.752;2023-07-22T10:28:25;100705.00;;;29.88;30.02
16613;BME280;8419;52.358;9.752;2023-07-22T10:31:11;100707.00;;;29.88;29.85
16613;BME280;8419;52.358;9.752;2023-07-22T10:33:58;100697.00;;;30.11;29.61
16613;BME280;8419;52.358;9.752;2023-07-22T10:36:48;100713.00;;;30.21;29.32
16613;BME280;8419;52.358;9.752;2023-07-22T10:39:33;100701.00;;;29.92;29.07
16613;BME280;8419;52.358;9.752;2023-07-22T10:42:25;100694.00;;;29.68;29.29
16613;BME280;8419;52.358;9.752;2023-07-22T10:45:28;100691.00;;;29.48;29.54
16613;BME280;8419;52.358;9.752;2023-07-22T10:48:14;100707.00;;;29.19;29.71
16613;BME280;8419;52.358;9.752;2023-07-22T10:51:06;100696.00;;;29.10;29.64
16613;BME280;8419;52.358;9.752;2023-07-22T10:53:52;100695.00;;;29.21;29.66
16613;BME280;8419;52.358;9.752;2023-07-22T10:56:38;100698.00;;;29.46;29.41
16613;BME280;8419;52.358;9.752;2023-07-22T10:59:27;100701.00;;;29.89;28.85
16613;BME280;8419;52.358;9.752;2023-07-22T11:02:23;100697.00;;;30.47;28.44
16613;BME280;8419;52.358;9.752;2023-07-22T11:05:12;100693.00;;;30.87;27.94
16613;BME280;8419;52.358;9.752;2023-07-22T11:08:05;100684.00;;;31.02;27.61
16613;BME280;8419;52.358;9.752;2023-07-22T11:10:54;100678.00;;;30.95;27.76
16613;BME280;8419;52.358;9.752;2023-07-22T11:13:40;100679.00;;;30.79;27.87
16613;BME280;8419;52.358;9.752;2023-07-22T11:16:29;100681.00;;;30.41;28.30
16613;BME280;8419;52.358;9.752;2023-07-22T11:19:16;100671.00;;;30.22;28.35
16613;BME280;8419;52.358;9.752;2023-07-22T11:22:03;100670.00;;;30.31;28.36
16613;BME280;8419;52.358;9.752;2023-07-22T11:24:48;100666.00;;;30.40;27.98
16613;BME280;8419;52.358;9.752;2023-07-22T11:27:34;100671.00;;;30.38;27.63
16613;BME280;8419;52.358;9.752;2023-07-22T11:30:20;100673.00;;;30.23;27.86
16613;BME280;8419;52.358;9.752;2023-07-22T11:33:08;100678.00;;;29.93;28.15
16613;BME280;8419;52.358;9.752;2023-07-22T11:35:53;100683.00;;;29.70;28.50
16613;BME280;8419;52.358;9.752;2023-07-22T11:38:39;100674.00;;;29.45;28.76
16613;BME280;8419;52.358;9.752;2023-07-22T11:41:26;100671.00;;;29.30;28.96
16613;BME280;8419;52.358;9.752;2023-07-22T11:44:13;100669.00;;;29.32;29.08
16613;BME280;8419;52.358;9.752;2023-07-22T11:47:01;100674.00;;;29.61;28.84
16613;BME280;8419;52.358;9.752;2023-07-22T11:49:48;100674.00;;;30.05;28.33
16613;BME280;8419;52.358;9.752;2023-07-22T11:52:34;100664.00;;;30.21;28.05
16613;BME280;8419;52.358;9.752;2023-07-22T11:55:24;100659.00;;;30.47;27.87
16613;BME280;8419;52.358;9.752;2023-07-22T11:58:09;100651.00;;;30.44;27.81
16613;BME280;8419;52.358;9.752;2023-07-22T12:01:03;100666.00;;;30.16;28.02
16613;BME280;8419;52.358;9.752;2023-07-22T12:03:50;100664.00;;;29.91;28.30
16613;BME280;8419;52.358;9.752;2023-07-22T12:06:40;100668.00;;;29.70;28.58
16613;BME280;8419;52.358;9.752;2023-07-22T12:09:26;100663.00;;;29.61;28.67
16613;BME280;8419;52.358;9.752;2023-07-22T12:12:11;100670.00;;;29.47;28.85
16613;BME280;8419;52.358;9.752;2023-07-22T12:15:02;100665.00;;;29.51;28.90
16613;BME280;8419;52.358;9.752;2023-07-22T12:17:53;100664.00;;;29.60;28.92
16613;BME280;8419;52.358;9.752;2023-07-22T12:20:40;100656.00;;;29.81;28.70
16613;BME280;8419;52.358;9.752;2023-07-22T12:23:26;100656.00;;;30.01;28.54
16613;BME280;8419;52.358;9.752;2023-07-22T12:26:12;100658.00;;;30.43;28.13
16613;BME280;8419;52.358;9.752;2023-07-22T12:28:58;100650.00;;;31.00;27.58
16613;BME280;8419;52.358;9.752;2023-07-22T12:31:44;100649.00;;;31.96;26.58
16613;BME280;8419;52.358;9.752;2023-07-22T12:34:30;100648.00;;;33.15;25.51
16613;BME280;8419;52.358;9.752;2023-07-22T12:37:15;100650.00;;;34.17;24.48
16613;BME280;8419;52.358;9.752;2023-07-22T12:40:01;100644.00;;;34.50;23.73
16613;BME280;8419;52.358;9.752;2023-07-22T12:42:49;100645.00;;;33.99;23.85
16613;BME280;8419;52.358;9.752;2023-07-22T12:45:35;100640.00;;;33.43;24.47
16613;BME280;8419;52.358;9.752;2023-07-22T12:48:20;100644.00;;;33.20;24.84
16613;BME280;8419;52.358;9.752;2023-07-22T12:51:08;100633.00;;;33.14;24.85
16613;BME280;8419;52.358;9.752;2023-07-22T12:53:54;100634.00;;;33.39;24.51
16613;BME280;8419;52.358;9.752;2023-07-22T12:56:40;100640.00;;;33.73;24.11
16613;BME280;8419;52.358;9.752;2023-07-22T12:59:28;100634.00;;;33.62;24.10
16613;BME280;8419;52.358;9.752;2023-07-22T13:02:14;100627.00;;;33.25;24.60
16613;BME280;8419;52.358;9.752;2023-07-22T13:05:00;100619.00;;;32.91;24.80
16613;BME280;8419;52.358;9.752;2023-07-22T13:07:46;100614.00;;;32.71;25.01
16613;BME280;8419;52.358;9.752;2023-07-22T13:10:31;100614.00;;;32.76;24.93
16613;BME280;8419;52.358;9.752;2023-07-22T13:13:19;100613.00;;;33.07;24.58
16613;BME280;8419;52.358;9.752;2023-07-22T13:16:05;100609.00;;;33.57;24.26
16613;BME280;8419;52.358;9.752;2023-07-22T13:18:50;100604.00;;;34.37;23.54
16613;BME280;8419;52.358;9.752;2023-07-22T13:21:36;100606.00;;;34.42;23.41
16613;BME280;8419;52.358;9.752;2023-07-22T13:24:22;100595.00;;;34.70;23.30
16613;BME280;8419;52.358;9.752;2023-07-22T13:27:08;100596.00;;;34.66;23.26
16613;BME280;8419;52.358;9.752;2023-07-22T13:29:53;100594.00;;;34.56;23.39
16613;BME280;8419;52.358;9.752;2023-07-22T13:32:39;100589.00;;;34.49;23.23
16613;BME280;8419;52.358;9.752;2023-07-22T13:35:24;100597.00;;;34.12;23.34
16613;BME280;8419;52.358;9.752;2023-07-22T13:38:10;100592.00;;;33.51;23.73
16613;BME280;8419;52.358;9.752;2023-07-22T13:40:56;100590.00;;;32.83;24.38
16613;BME280;8419;52.358;9.752;2023-07-22T13:43:41;100589.00;;;32.46;24.77
16613;BME280;8419;52.358;9.752;2023-07-22T13:46:27;100583.00;;;32.22;25.09
16613;BME280;8419;52.358;9.752;2023-07-22T13:49:12;100574.00;;;32.05;25.35
16613;BME280;8419;52.358;9.752;2023-07-22T13:51:59;100576.00;;;32.38;25.08
16613;BME280;8419;52.358;9.752;2023-07-22T13:54:45;100579.00;;;32.76;24.69
16613;BME280;8419;52.358;9.752;2023-07-22T13:57:30;100580.00;;;32.88;24.28
16613;BME280;8419;52.358;9.752;2023-07-22T14:00:16;100566.00;;;32.67;24.21
16613;BME280;8419;52.358;9.752;2023-07-22T14:03:03;100575.00;;;32.47;24.25
16613;BME280;8419;52.358;9.752;2023-07-22T14:05:49;100570.00;;;32.18;24.15
16613;BME280;8419;52.358;9.752;2023-07-22T14:08:34;100563.00;;;31.87;24.37
16613;BME280;8419;52.358;9.752;2023-07-22T14:11:19;100562.00;;;31.93;24.33
16613;BME280;8419;52.358;9.752;2023-07-22T14:14:05;100565.00;;;32.15;24.13
16613;BME280;8419;52.358;9.752;2023-07-22T14:16:51;100551.00;;;33.13;23.46
16613;BME280;8419;52.358;9.752;2023-07-22T14:19:37;100552.00;;;34.26;22.41
16613;BME280;8419;52.358;9.752;2023-07-22T14:22:22;100549.00;;;34.40;22.37
16613;BME280;8419;52.358;9.752;2023-07-22T14:25:09;100551.00;;;34.08;22.59
16613;BME280;8419;52.358;9.752;2023-07-22T14:27:55;100550.00;;;34.04;22.62
16613;BME280;8419;52.358;9.752;2023-07-22T14:30:41;100556.00;;;34.03;22.45
16613;BME280;8419;52.358;9.752;2023-07-22T14:33:26;100551.00;;;34.08;22.42
16613;BME280;8419;52.358;9.752;2023-07-22T14:36:12;100548.00;;;34.14;22.49
16613;BME280;8419;52.358;9.752;2023-07-22T14:38:57;100533.00;;;34.41;22.20
16613;BME280;8419;52.358;9.752;2023-07-22T14:41:43;100532.00;;;34.99;21.75